Time;durP1;ratioP1;P1;durP2;ratioP2;P2;SDS_P1;SDS_P2;PMS_P1;PMS_P2;Temp;Humidity;BMP_temperature;BMP_pressure;BME280_temperature;BME280_humidity;BME280_pressure;Samples;Min_cycle;Max_cycle;Signal;HPM_P1;HPM_P2
2022/04/12 00:00:05;;;;;;;8.37;6.53;;;7.70;99.90;;;;;;5009591;28;20461;-65
2022/04/12 00:02:32;;;;;;;7.00;6.10;;;7.60;99.90;;;;;;5008517;28;20465;-65
2022/04/12 00:04:59;;;;;;;8.10;6.53;;;7.50;99.90;;;;;;5008473;28;20482;-65
2022/04/12 00:07:25;;;;;;;8.27;7.03;;;7.40;99.90;;;;;;5010045;28;20458;-65
2022/04/12 00:09:54;;;;;;;8.27;6.63;;;7.30;99.90;;;;;;5010011;28;20814;-65
2022/04/12 00:12:20;;;;;;;7.63;6.40;;;7.20;99.90;;;;;;5009684;28;20484;-66
2022/04/12 00:14:47;;;;;;;8.70;6.70;;;7.10;99.90;;;;;;5009562;28;20452;-65
2022/04/12 00:19:58;;;;;;;8.40;6.30;;;7.00;99.90;;;;;;5009753;28;20512;-66
2022/04/12 00:22:25;;;;;;;11.20;7.53;;;7.00;99.90;;;;;;5009860;28;20505;-66
2022/04/12 00:24:52;;;;;;;7.17;5.90;;;6.90;99.90;;;;;;5009382;28;20477;-65
2022/04/12 00:27:20;;;;;;;10.37;6.40;;;6.90;99.90;;;;;;5009587;28;20507;-65
2022/04/12 00:29:47;;;;;;;8.23;6.43;;;6.90;99.90;;;;;;5009414;28;20446;-66
2022/04/12 00:32:14;;;;;;;8.77;6.27;;;6.90;99.90;;;;;;5009637;28;20522;-65
2022/04/12 00:34:41;;;;;;;9.23;7.00;;;6.90;99.90;;;;;;5009440;28;20464;-67
2022/04/12 00:37:07;;;;;;;6.77;6.07;;;6.90;99.90;;;;;;5009634;28;20532;-65
2022/04/12 00:39:34;;;;;;;8.30;7.27;;;6.80;99.90;;;;;;5009348;28;20952;-63
2022/04/12 00:42:01;;;;;;;7.70;6.50;;;6.80;99.90;;;;;;5009498;28;20556;-64
2022/04/12 00:44:30;;;;;;;7.67;5.80;;;6.80;99.90;;;;;;5009053;28;20584;-65
2022/04/12 00:46:56;;;;;;;8.20;6.33;;;6.80;99.90;;;;;;5009694;28;20460;-64
2022/04/12 00:49:24;;;;;;;8.77;6.73;;;6.80;99.90;;;;;;5009356;28;20450;-65
2022/04/12 00:51:52;;;;;;;8.20;6.30;;;6.80;99.90;;;;;;5009478;28;20445;-65
2022/04/12 00:54:21;;;;;;;8.37;6.40;;;6.80;99.90;;;;;;5009005;28;20461;-64
2022/04/12 00:56:49;;;;;;;6.90;6.20;;;6.80;99.90;;;;;;5009114;28;20445;-65
2022/04/12 00:59:16;;;;;;;9.00;6.63;;;6.90;99.90;;;;;;5009282;28;20461;-65
2022/04/12 01:01:44;;;;;;;9.10;7.20;;;6.90;99.90;;;;;;5009113;28;20441;-64
2022/04/12 01:04:11;;;;;;;8.60;6.67;;;6.90;99.90;;;;;;5008961;28;20918;-64
2022/04/12 01:06:38;;;;;;;10.27;6.60;;;6.90;99.90;;;;;;5012736;28;20442;-65
2022/04/12 01:09:05;;;;;;;7.77;6.70;;;6.90;99.90;;;;;;5012736;28;20844;-64
2022/04/12 01:11:33;;;;;;;8.07;6.60;;;6.90;99.90;;;;;;5012510;28;21058;-65
2022/04/12 01:14:00;;;;;;;9.37;6.30;;;6.90;99.90;;;;;;5012629;28;20469;-64
2022/04/12 01:16:26;;;;;;;8.53;6.47;;;6.80;99.90;;;;;;5012287;28;20446;-64
2022/04/12 01:18:55;;;;;;;7.87;6.83;;;6.70;99.90;;;;;;5012397;28;20456;-65
2022/04/12 01:21:22;;;;;;;9.57;6.57;;;6.70;99.90;;;;;;5012334;28;21027;-65
2022/04/12 01:24:08;;;;;;;8.10;7.10;;;6.60;99.90;;;;;;5012278;28;20477;-65
2022/04/12 01:26:35;;;;;;;9.00;6.40;;;6.50;99.90;;;;;;5012589;28;20445;-64
2022/04/12 01:29:02;;;;;;;10.37;7.00;;;6.50;99.90;;;;;;5012575;28;20476;-65
2022/04/12 01:31:28;;;;;;;7.87;5.97;;;6.50;99.90;;;;;;5012247;28;20454;-64
2022/04/12 01:33:55;;;;;;;7.20;6.37;;;6.40;99.90;;;;;;5012117;28;20462;-67
2022/04/12 01:36:22;;;;;;;8.90;6.80;;;6.50;99.90;;;;;;5011737;28;20525;-64
2022/04/12 01:38:49;;;;;;;7.70;6.90;;;6.40;99.90;;;;;;5012043;28;20555;-64
2022/04/12 01:41:17;;;;;;;9.00;7.10;;;6.40;99.90;;;;;;5012263;28;20450;-64
2022/04/12 01:43:44;;;;;;;10.50;7.50;;;6.30;99.90;;;;;;5012124;28;20472;-64
2022/04/12 01:46:11;;;;;;;7.70;6.90;;;6.30;99.90;;;;;;5011620;28;21019;-64
2022/04/12 01:48:38;;;;;;;7.87;6.83;;;6.30;99.90;;;;;;5012020;28;20445;-64
2022/04/12 01:51:04;;;;;;;8.30;6.57;;;6.30;99.90;;;;;;5011852;28;20823;-65
2022/04/12 01:53:31;;;;;;;7.03;6.30;;;6.20;99.90;;;;;;5011963;28;20913;-65
2022/04/12 01:55:58;;;;;;;8.13;6.50;;;6.20;99.90;;;;;;5011578;28;20452;-64
2022/04/12 01:58:26;;;;;;;10.00;8.20;;;6.20;99.90;;;;;;5011847;28;20536;-64
2022/04/12 02:00:53;;;;;;;15.73;7.13;;;6.20;99.90;;;;;;5011753;28;20454;-64
2022/04/12 02:03:20;;;;;;;12.10;7.83;;;6.00;99.90;;;;;;5011759;28;20476;-64
2022/04/12 02:05:47;;;;;;;8.93;7.60;;;6.00;99.90;;;;;;5011496;28;20485;-64
2022/04/12 02:08:14;;;;;;;12.67;8.40;;;6.00;99.90;;;;;;5012104;28;20449;-64
2022/04/12 02:10:40;;;;;;;9.70;7.40;;;6.00;99.90;;;;;;5011827;28;20457;-62
2022/04/12 02:13:07;;;;;;;10.40;7.27;;;6.10;99.90;;;;;;5011691;28;20480;-64
2022/04/12 02:15:35;;;;;;;10.10;8.00;;;6.00;99.90;;;;;;5010729;28;20442;-64
2022/04/12 02:18:02;;;;;;;10.33;7.37;;;6.00;99.90;;;;;;5010915;28;20456;-64
2022/04/12 02:20:29;;;;;;;11.87;9.17;;;6.00;99.90;;;;;;5011787;28;20449;-64
2022/04/12 02:22:56;;;;;;;12.80;8.93;;;5.90;99.90;;;;;;5011545;28;20572;-63
2022/04/12 02:25:23;;;;;;;9.63;6.73;;;5.80;99.90;;;;;;5010825;28;20828;-64
2022/04/12 02:27:49;;;;;;;9.97;8.53;;;5.80;99.90;;;;;;5011408;28;20525;-64
2022/04/12 02:30:16;;;;;;;11.57;7.90;;;5.70;99.90;;;;;;5011163;28;20461;-64
2022/04/12 02:32:45;;;;;;;10.60;8.40;;;5.60;99.90;;;;;;5010946;28;21006;-62
2022/04/12 02:35:12;;;;;;;11.10;8.10;;;5.50;99.90;;;;;;5010926;28;20824;-65
2022/04/12 02:37:39;;;;;;;9.50;8.50;;;5.50;99.90;;;;;;5011198;28;20475;-64
2022/04/12 02:40:07;;;;;;;11.40;7.60;;;5.40;99.90;;;;;;5010942;28;20468;-64
2022/04/12 02:42:34;;;;;;;11.90;8.23;;;5.50;99.90;;;;;;5010952;28;20462;-64
2022/04/12 02:45:00;;;;;;;8.43;7.53;;;5.50;99.90;;;;;;5010412;28;21017;-64
2022/04/12 02:47:28;;;;;;;9.67;7.90;;;5.40;99.90;;;;;;5010762;28;20472;-64
2022/04/12 02:49:57;;;;;;;10.93;8.00;;;5.30;99.90;;;;;;5010986;28;20442;-64
2022/04/12 02:52:24;;;;;;;12.00;8.50;;;5.20;99.90;;;;;;5010813;28;20582;-64
2022/04/12 02:54:50;;;;;;;9.47;7.10;;;5.10;99.90;;;;;;5010539;28;20507;-64
2022/04/12 02:57:17;;;;;;;8.67;7.43;;;5.10;99.90;;;;;;5010851;28;20450;-63
2022/04/12 02:59:44;;;;;;;10.47;7.80;;;5.10;99.90;;;;;;5010568;28;20452;-65
2022/04/12 03:02:11;;;;;;;10.03;8.03;;;5.10;99.90;;;;;;5010516;28;20450;-64
2022/04/12 03:04:40;;;;;;;11.63;8.03;;;5.00;99.90;;;;;;5010627;28;20473;-63
2022/04/12 03:07:08;;;;;;;9.37;7.90;;;5.10;99.90;;;;;;5010513;28;20446;-64
2022/04/12 03:09:35;;;;;;;9.83;7.80;;;5.10;99.90;;;;;;5010585;28;20446;-65
2022/04/12 03:12:02;;;;;;;8.50;6.90;;;5.10;99.90;;;;;;5010415;28;20450;-66
2022/04/12 03:14:29;;;;;;;9.80;7.87;;;5.10;99.90;;;;;;5010053;28;20457;-64
2022/04/12 03:16:56;;;;;;;11.43;8.40;;;5.10;99.90;;;;;;5010384;28;20446;-64
2022/04/12 03:19:23;;;;;;;14.93;8.67;;;5.00;99.90;;;;;;5010658;28;20445;-64
2022/04/12 03:21:50;;;;;;;10.27;8.03;;;5.00;99.90;;;;;;5010355;28;20452;-64
2022/04/12 03:24:18;;;;;;;8.97;7.80;;;5.00;99.90;;;;;;5010084;28;20474;-64
2022/04/12 03:26:49;;;;;;;9.70;8.57;;;5.00;99.90;;;;;;5010175;28;20556;-63
2022/04/12 03:29:16;;;;;;;10.17;7.87;;;5.00;99.90;;;;;;5010289;28;20450;-64
2022/04/12 03:31:43;;;;;;;9.77;8.23;;;5.00;99.90;;;;;;5010321;28;20496;-64
2022/04/12 03:34:10;;;;;;;12.03;9.03;;;5.00;99.90;;;;;;5009927;28;20461;-63
2022/04/12 03:36:37;;;;;;;12.40;8.77;;;4.90;99.90;;;;;;5010090;28;20452;-64
2022/04/12 03:39:04;;;;;;;11.50;9.17;;;4.90;99.90;;;;;;5010053;28;20512;-64
2022/04/12 03:41:33;;;;;;;10.77;8.27;;;4.90;99.90;;;;;;5009929;28;20469;-64
2022/04/12 03:43:59;;;;;;;10.83;8.90;;;4.90;99.90;;;;;;5009908;28;20477;-64
2022/04/12 03:46:26;;;;;;;12.53;10.63;;;4.80;99.90;;;;;;5009660;28;21085;-66
2022/04/12 03:48:53;;;;;;;13.03;10.40;;;4.80;99.90;;;;;;5010037;28;20540;-63
2022/04/12 03:51:20;;;;;;;12.43;10.23;;;4.80;99.90;;;;;;5009899;28;20468;-63
2022/04/12 03:53:47;;;;;;;11.93;9.43;;;4.90;99.90;;;;;;5009734;28;20508;-64
2022/04/12 03:56:14;;;;;;;11.40;9.50;;;4.90;99.90;;;;;;5009547;28;20524;-63
2022/04/12 03:58:42;;;;;;;12.93;10.37;;;4.90;99.90;;;;;;5009918;28;20449;-65
2022/04/12 04:01:09;;;;;;;12.07;9.53;;;4.90;99.90;;;;;;5009785;28;20545;-64
2022/04/12 04:03:36;;;;;;;14.90;10.17;;;4.90;99.90;;;;;;5009892;28;20501;-64
2022/04/12 04:06:04;;;;;;;12.27;10.17;;;4.90;99.90;;;;;;5009487;28;20477;-63
2022/04/12 04:08:31;;;;;;;10.30;9.03;;;4.80;99.90;;;;;;5009884;28;20453;-63
2022/04/12 04:10:57;;;;;;;12.30;9.70;;;4.80;99.90;;;;;;5010039;28;20465;-63
2022/04/12 04:13:26;;;;;;;13.20;10.40;;;4.90;99.90;;;;;;5009951;28;20484;-63
2022/04/12 04:15:54;;;;;;;12.00;9.90;;;4.90;99.90;;;;;;5009638;28;21243;-63
2022/04/12 04:18:21;;;;;;;12.00;10.17;;;4.90;99.90;;;;;;5010613;28;20541;-63
2022/04/12 04:20:48;;;;;;;15.23;10.17;;;4.90;99.90;;;;;;5009855;28;20500;-65
2022/04/12 04:23:15;;;;;;;14.80;9.70;;;4.90;99.90;;;;;;5009894;28;20564;-63
2022/04/12 04:25:42;;;;;;;14.00;10.23;;;4.90;99.90;;;;;;5009295;28;21015;-64
2022/04/12 04:28:11;;;;;;;14.03;9.80;;;5.00;99.90;;;;;;5009979;28;20449;-64
2022/04/12 04:30:38;;;;;;;12.73;9.53;;;5.10;99.90;;;;;;5009705;28;20453;-64
2022/04/12 04:33:08;;;;;;;13.07;9.93;;;5.10;99.90;;;;;;5009730;28;20832;-64
2022/04/12 04:35:35;;;;;;;10.67;9.57;;;5.10;99.90;;;;;;5007897;28;20450;-65
2022/04/12 04:38:02;;;;;;;11.63;9.67;;;5.00;99.90;;;;;;5007806;28;20459;-62
2022/04/12 04:40:29;;;;;;;11.20;9.33;;;5.00;99.90;;;;;;5011431;28;20438;-64
2022/04/12 04:42:55;;;;;;;12.27;9.87;;;5.00;99.90;;;;;;5019860;28;20568;-63
2022/04/12 04:45:23;;;;;;;10.20;8.73;;;5.00;99.90;;;;;;5012624;28;20446;-62
2022/04/12 04:47:54;;;;;;;13.80;9.80;;;5.00;99.90;;;;;;5013101;28;20504;-62
2022/04/12 04:50:24;;;;;;;10.50;8.57;;;4.80;99.90;;;;;;5012889;28;20540;-63
2022/04/12 04:52:51;;;;;;;11.00;9.27;;;4.90;99.90;;;;;;5011542;28;20480;-64
2022/04/12 04:55:19;;;;;;;12.63;9.53;;;4.80;99.90;;;;;;5012148;28;20457;-63
2022/04/12 04:57:47;;;;;;;12.43;10.50;;;4.70;99.90;;;;;;5012480;28;20453;-63
2022/04/12 05:00:16;;;;;;;12.67;9.70;;;4.70;99.90;;;;;;5012878;28;20442;-63
2022/04/12 05:02:44;;;;;;;14.23;9.93;;;4.80;99.90;;;;;;5013494;28;20469;-62
2022/04/12 05:05:11;;;;;;;16.10;10.17;;;4.80;99.90;;;;;;5013971;28;20445;-61
2022/04/12 05:07:40;;;;;;;13.77;10.20;;;4.80;99.90;;;;;;5014030;28;20477;-62
2022/04/12 05:10:08;;;;;;;12.17;9.93;;;4.80;99.90;;;;;;5013153;28;21043;-63
2022/04/12 05:12:35;;;;;;;11.17;9.77;;;4.80;99.90;;;;;;5012277;28;20462;-61
2022/04/12 05:15:02;;;;;;;12.70;10.27;;;4.90;99.90;;;;;;5006996;28;20472;-63
2022/04/12 05:17:30;;;;;;;14.23;10.20;;;5.00;99.90;;;;;;5019744;28;20446;-63
2022/04/12 05:19:57;;;;;;;13.03;9.67;;;5.00;99.90;;;;;;5030807;28;20445;-63
2022/04/12 05:22:24;;;;;;;9.90;8.67;;;5.00;99.90;;;;;;5032176;28;20472;-61
2022/04/12 05:24:53;;;;;;;13.73;9.33;;;5.10;99.90;;;;;;5031806;28;20645;-62
2022/04/12 05:27:20;;;;;;;10.13;8.60;;;5.10;99.90;;;;;;5004753;28;20487;-63
2022/04/12 05:29:48;;;;;;;10.67;8.30;;;5.10;99.90;;;;;;5003326;28;20533;-62
2022/04/12 05:32:15;;;;;;;12.13;9.40;;;5.20;99.90;;;;;;5001660;28;20475;-64
2022/04/12 05:34:43;;;;;;;12.17;9.93;;;5.20;99.90;;;;;;5003726;28;20928;-64
2022/04/12 05:37:10;;;;;;;11.67;9.53;;;5.30;99.90;;;;;;5002732;28;20822;-63
2022/04/12 05:39:37;;;;;;;12.10;9.90;;;5.40;99.90;;;;;;5009614;28;20470;-64
2022/04/12 05:42:06;;;;;;;11.60;9.87;;;5.50;99.90;;;;;;5012089;28;20541;-65
2022/04/12 05:44:33;;;;;;;11.63;10.13;;;5.60;99.90;;;;;;5011679;28;20851;-63
2022/04/12 05:47:01;;;;;;;12.43;9.03;;;5.60;99.90;;;;;;5009166;28;20484;-64
2022/04/12 05:49:28;;;;;;;11.87;9.40;;;5.70;99.90;;;;;;5007597;28;20449;-64
2022/04/12 05:51:55;;;;;;;13.10;10.43;;;5.70;99.90;;;;;;5006235;28;20451;-62
2022/04/12 05:54:22;;;;;;;11.57;9.77;;;5.80;99.90;;;;;;5008640;28;20536;-63
2022/04/12 05:56:49;;;;;;;13.10;10.13;;;5.90;99.90;;;;;;5007456;28;20446;-63
2022/04/12 05:59:17;;;;;;;10.60;9.50;;;6.10;99.90;;;;;;5004153;28;20450;-66
2022/04/12 06:01:44;;;;;;;13.20;9.20;;;6.20;99.90;;;;;;5010802;28;20461;-65
2022/04/12 06:04:11;;;;;;;10.40;9.33;;;6.30;99.90;;;;;;5010853;28;20472;-63
2022/04/12 06:06:41;;;;;;;11.77;9.97;;;6.50;99.90;;;;;;5009696;28;20478;-63
2022/04/12 06:09:08;;;;;;;11.03;9.90;;;6.60;99.90;;;;;;5009311;28;20481;-63
2022/04/12 06:11:35;;;;;;;10.00;9.00;;;6.70;99.90;;;;;;5009310;28;20971;-62
2022/04/12 06:14:02;;;;;;;11.57;9.80;;;6.90;99.90;;;;;;5009923;28;20465;-63
2022/04/12 06:16:30;;;;;;;12.50;9.17;;;7.00;99.90;;;;;;5009823;28;20954;-63
2022/04/12 06:18:57;;;;;;;10.40;8.63;;;7.20;99.90;;;;;;5009915;28;20477;-62
2022/04/12 06:21:24;;;;;;;10.50;8.70;;;7.30;99.90;;;;;;5010364;28;20958;-63
2022/04/12 06:23:51;;;;;;;10.93;8.67;;;7.40;99.90;;;;;;5011409;28;20483;-65
2022/04/12 06:26:17;;;;;;;9.90;8.70;;;7.50;99.90;;;;;;5011192;28;20484;-61
2022/04/12 06:28:44;;;;;;;9.17;8.23;;;7.70;99.90;;;;;;5011363;28;20565;-63
2022/04/12 06:31:11;;;;;;;11.37;8.20;;;7.80;99.90;;;;;;5011474;28;20460;-65
2022/04/12 06:33:39;;;;;;;9.20;8.23;;;8.00;99.90;;;;;;5011334;28;20466;-63
2022/04/12 06:36:06;;;;;;;11.23;7.83;;;8.10;99.90;;;;;;5011058;28;20460;-64
2022/04/12 06:38:33;;;;;;;9.77;8.00;;;8.20;99.90;;;;;;5011126;28;20485;-64
2022/04/12 06:41:00;;;;;;;9.50;8.17;;;8.30;99.90;;;;;;5011249;28;20445;-62
2022/04/12 06:43:27;;;;;;;11.20;8.57;;;8.50;99.90;;;;;;5011174;28;20553;-64
2022/04/12 06:45:54;;;;;;;10.00;8.20;;;8.60;99.90;;;;;;5010660;28;20449;-63
2022/04/12 06:48:21;;;;;;;8.87;7.97;;;8.70;99.90;;;;;;5010995;28;20485;-65
2022/04/12 06:50:49;;;;;;;9.27;6.93;;;8.80;99.90;;;;;;5011072;28;20449;-63
2022/04/12 06:53:16;;;;;;;8.07;6.50;;;9.00;99.90;;;;;;5010653;28;20474;-64
2022/04/12 06:55:43;;;;;;;7.33;6.23;;;9.20;99.90;;;;;;5010747;28;20442;-64
2022/04/12 06:58:09;;;;;;;8.73;7.50;;;9.30;99.90;;;;;;5010984;28;20556;-64
2022/04/12 07:00:39;;;;;;;7.67;6.80;;;9.50;99.90;;;;;;5010769;28;20968;-65
2022/04/12 07:03:07;;;;;;;8.83;7.93;;;9.70;99.90;;;;;;5010084;28;20473;-62
2022/04/12 07:05:33;;;;;;;8.73;7.83;;;9.80;99.90;;;;;;5010383;28;20940;-63
2022/04/12 07:08:02;;;;;;;9.40;7.40;;;10.00;99.90;;;;;;5010556;28;20517;-65
2022/04/12 07:10:28;;;;;;;10.57;7.70;;;10.20;99.90;;;;;;5010707;28;20544;-64
2022/04/12 07:12:55;;;;;;;7.90;7.00;;;10.40;99.90;;;;;;5010431;28;20987;-63
2022/04/12 07:15:22;;;;;;;11.73;8.07;;;10.50;99.90;;;;;;5010095;28;20964;-65
2022/04/12 07:17:49;;;;;;;7.70;7.00;;;10.60;99.90;;;;;;5010537;28;20442;-64
2022/04/12 07:20:16;;;;;;;6.90;6.17;;;10.70;99.90;;;;;;5010398;28;20450;-64
2022/04/12 07:22:42;;;;;;;8.50;6.70;;;10.90;99.90;;;;;;5010512;28;20496;-64
2022/04/12 07:25:11;;;;;;;12.40;8.10;;;11.00;99.90;;;;;;5010270;28;20438;-62
2022/04/12 07:27:38;;;;;;;11.00;8.00;;;11.10;99.90;;;;;;5010269;28;20486;-62
2022/04/12 07:30:07;;;;;;;7.40;6.00;;;11.20;99.90;;;;;;5010314;28;20449;-64
2022/04/12 07:32:34;;;;;;;7.53;6.73;;;11.30;99.90;;;;;;5010051;28;20524;-63
2022/04/12 07:35:01;;;;;;;7.40;6.50;;;11.40;99.90;;;;;;5009921;28;20458;-64
2022/04/12 07:37:28;;;;;;;7.07;6.33;;;11.50;99.90;;;;;;5010388;28;20524;-64
2022/04/12 07:39:56;;;;;;;7.57;6.40;;;11.70;99.90;;;;;;5010171;28;20469;-64
2022/04/12 07:42:24;;;;;;;8.57;7.67;;;11.70;99.90;;;;;;5010190;28;20872;-63
2022/04/12 07:44:52;;;;;;;8.53;7.63;;;11.80;99.90;;;;;;5009785;28;20540;-64
2022/04/12 07:47:18;;;;;;;7.80;6.97;;;11.80;99.90;;;;;;5009914;28;20482;-63
2022/04/12 07:49:45;;;;;;;8.00;7.20;;;11.80;99.90;;;;;;5010293;28;20528;-64
2022/04/12 07:52:12;;;;;;;9.57;6.33;;;11.80;99.90;;;;;;5010236;28;20894;-63
2022/04/12 07:54:39;;;;;;;9.53;6.93;;;12.00;99.90;;;;;;5009923;28;20446;-65
2022/04/12 07:57:07;;;;;;;8.37;6.93;;;12.00;99.90;;;;;;5010174;28;21086;-64
2022/04/12 07:59:35;;;;;;;8.77;6.53;;;12.10;99.90;;;;;;5009985;28;20456;-65
2022/04/12 08:02:02;;;;;;;8.10;7.30;;;12.20;99.90;;;;;;5009150;28;20533;-64
2022/04/12 08:04:28;;;;;;;7.30;6.50;;;12.40;99.90;;;;;;5009838;28;20553;-64
2022/04/12 08:06:55;;;;;;;8.20;7.30;;;12.70;99.90;;;;;;5009997;28;20516;-62
2022/04/12 08:09:22;;;;;;;10.47;7.10;;;12.90;99.90;;;;;;5009933;28;20932;-64
2022/04/12 08:11:49;;;;;;;10.10;8.00;;;13.00;99.90;;;;;;5010156;28;20446;-64
2022/04/12 08:14:16;;;;;;;7.57;6.80;;;13.30;99.90;;;;;;5011495;28;20477;-63
2022/04/12 08:16:44;;;;;;;8.50;6.67;;;13.50;99.90;;;;;;5013790;28;20816;-64
2022/04/12 08:19:11;;;;;;;8.43;7.63;;;13.80;99.90;;;;;;5014092;28;20452;-64
2022/04/12 08:21:40;;;;;;;10.70;7.40;;;14.10;99.90;;;;;;5013836;28;20452;-63
2022/04/12 08:24:08;;;;;;;8.53;6.93;;;14.30;99.90;;;;;;5013673;28;20845;-64
2022/04/12 08:26:35;;;;;;;9.00;7.47;;;14.50;99.90;;;;;;5014073;28;20548;-63
2022/04/12 08:29:02;;;;;;;11.00;7.30;;;14.80;99.90;;;;;;5014076;28;20481;-63
2022/04/12 08:31:29;;;;;;;9.13;8.17;;;15.10;99.90;;;;;;5014321;28;20453;-66
2022/04/12 08:33:57;;;;;;;10.23;7.40;;;15.10;99.50;;;;;;5013870;28;20477;-65
2022/04/12 08:36:25;;;;;;;9.77;7.90;;;15.10;99.90;;;;;;5013437;28;20451;-65
2022/04/12 08:38:52;;;;;;;8.70;6.87;;;15.40;98.50;;;;;;5013363;28;20466;-64
2022/04/12 08:41:23;;;;;;;9.27;8.37;;;15.50;98.10;;;;;;5013755;28;20536;-65
2022/04/12 08:43:55;;;;;;;9.23;8.20;;;15.70;99.20;;;;;;5013784;28;20541;-64
2022/04/12 08:46:25;;;;;;;8.93;7.93;;;15.90;99.40;;;;;;5013363;28;20450;-65
2022/04/12 08:48:53;;;;;;;11.90;7.67;;;16.10;99.60;;;;;;5013395;28;20457;-64
2022/04/12 08:51:22;;;;;;;9.23;7.70;;;16.40;98.90;;;;;;5013292;28;20456;-64
2022/04/12 08:53:50;;;;;;;8.40;6.87;;;16.80;99.50;;;;;;5013083;28;20469;-64
2022/04/12 08:56:18;;;;;;;9.27;7.60;;;17.20;98.30;;;;;;5012814;28;20489;-64
2022/04/12 08:58:45;;;;;;;8.03;7.20;;;17.50;98.20;;;;;;5013041;28;20448;-64
2022/04/12 09:01:12;;;;;;;9.47;7.73;;;17.70;97.10;;;;;;5013182;28;20837;-65
2022/04/12 09:03:39;;;;;;;8.63;6.80;;;18.00;96.80;;;;;;5013017;28;20469;-64
2022/04/12 09:06:06;;;;;;;8.47;7.47;;;18.10;96.00;;;;;;5012659;28;20449;-63
2022/04/12 09:08:35;;;;;;;7.67;6.90;;;17.80;94.50;;;;;;5012798;28;20492;-62
2022/04/12 09:11:05;;;;;;;11.27;7.67;;;17.80;96.90;;;;;;5013190;28;20453;-64
2022/04/12 09:13:32;;;;;;;8.80;7.03;;;18.00;95.30;;;;;;5012901;28;20470;-66
2022/04/12 09:16:00;;;;;;;8.63;7.73;;;18.20;95.10;;;;;;5012574;28;20983;-64
2022/04/12 09:18:36;;;;;;;8.60;6.43;;;18.10;95.40;;;;;;5012883;28;20794;-65
2022/04/12 09:21:14;;;;;;;8.40;6.20;;;18.20;95.30;;;;;;5012599;28;20992;-65
2022/04/12 09:23:47;;;;;;;7.60;6.40;;;18.50;95.00;;;;;;5012829;28;20477;-64
2022/04/12 09:26:25;;;;;;;8.90;6.57;;;18.70;92.90;;;;;;5011885;28;20450;-63
2022/04/12 09:28:53;;;;;;;14.27;6.83;;;18.90;93.10;;;;;;5012667;28;20489;-64
2022/04/12 09:31:21;;;;;;;7.63;6.83;;;19.50;93.00;;;;;;5012641;28;20450;-64
2022/04/12 09:33:49;;;;;;;15.97;6.80;;;20.10;91.50;;;;;;5012544;28;20466;-65
2022/04/12 09:36:17;;;;;;;8.43;6.57;;;20.50;91.50;;;;;;5012091;28;20545;-65
2022/04/12 09:38:48;;;;;;;9.30;6.10;;;21.40;90.00;;;;;;5012561;28;20556;-64
2022/04/12 09:41:20;;;;;;;6.60;5.27;;;21.90;86.30;;;;;;5012522;28;20450;-66
2022/04/12 09:43:54;;;;;;;7.23;5.13;;;22.10;81.60;;;;;;5012468;28;20476;-67
2022/04/12 09:46:21;;;;;;;6.23;4.57;;;22.10;84.50;;;;;;5012414;28;20472;-65
2022/04/12 09:48:49;;;;;;;6.10;5.50;;;22.10;80.80;;;;;;5012393;28;20481;-65
2022/04/12 09:51:17;;;;;;;5.97;4.73;;;22.10;81.90;;;;;;5012547;28;21322;-65
2022/04/12 09:53:46;;;;;;;10.00;5.30;;;22.00;80.20;;;;;;5012420;28;20472;-65
2022/04/12 09:56:20;;;;;;;5.83;4.30;;;22.00;79.70;;;;;;5012858;28;20504;-65
2022/04/12 09:58:48;;;;;;;19.63;5.90;;;22.20;80.10;;;;;;5013329;28;20444;-65
2022/04/12 10:01:17;;;;;;;14.83;5.10;;;22.50;80.10;;;;;;5012480;28;20952;-65
2022/04/12 10:03:50;;;;;;;6.93;3.90;;;22.90;76.50;;;;;;5012151;28;20470;-63
2022/04/12 10:06:21;;;;;;;4.70;3.87;;;23.20;70.70;;;;;;5012020;28;20564;-65
2022/04/12 10:08:53;;;;;;;6.10;4.10;;;23.60;73.80;;;;;;5012138;28;20481;-65
2022/04/12 10:11:20;;;;;;;6.90;4.63;;;23.60;68.70;;;;;;5012156;28;20445;-65
2022/04/12 10:13:48;;;;;;;5.73;3.43;;;23.10;73.60;;;;;;5011632;28;20478;-64
2022/04/12 10:16:17;;;;;;;6.20;4.13;;;23.20;69.80;;;;;;5011716;28;20457;-64
2022/04/12 10:18:44;;;;;;;6.03;3.67;;;23.30;70.50;;;;;;5011772;28;20449;-65
2022/04/12 10:21:13;;;;;;;6.90;4.10;;;23.60;65.50;;;;;;5011748;28;20458;-66
2022/04/12 10:23:42;;;;;;;5.87;4.00;;;24.00;68.10;;;;;;5011418;28;20859;-65
2022/04/12 10:26:11;;;;;;;4.97;3.50;;;24.30;66.90;;;;;;5011397;28;20457;-64
2022/04/12 10:28:38;;;;;;;4.70;3.37;;;24.70;69.10;;;;;;5011634;28;20496;-66
2022/04/12 10:31:20;;;;;;;4.77;3.40;;;25.10;62.40;;;;;;5011570;28;20541;-62
2022/04/12 10:34:03;;;;;;;7.20;3.80;;;25.30;64.20;;;;;;5011358;28;20481;-63
2022/04/12 10:37:11;;;;;;;5.40;3.60;;;25.50;62.60;;;;;;5011132;28;20460;-63
2022/04/12 10:39:45;;;;;;;4.73;3.40;;;25.20;66.30;;;;;;5011424;28;20458;-65
2022/04/12 10:42:18;;;;;;;4.43;4.03;;;25.40;63.60;;;;;;5011461;28;20442;-62
2022/04/12 10:44:46;;;;;;;3.23;2.93;;;25.30;58.80;;;;;;5011363;28;20465;-63
2022/04/12 10:47:29;;;;;;;4.23;3.50;;;25.30;61.50;;;;;;5011308;28;20446;-63
2022/04/12 10:49:58;;;;;;;6.00;3.57;;;25.30;59.60;;;;;;5011320;28;20456;-62
2022/04/12 10:52:42;;;;;;;4.03;3.27;;;25.30;62.80;;;;;;5011102;28;20476;-66
2022/04/12 10:55:12;;;;;;;6.80;3.53;;;25.30;64.10;;;;;;5011313;28;20464;-64
2022/04/12 10:57:40;;;;;;;5.40;3.20;;;25.30;62.70;;;;;;5011242;28;20852;-65
2022/04/12 11:00:17;;;;;;;3.90;2.70;;;25.60;59.20;;;;;;5087333;28;20569;-63
2022/04/12 11:02:45;;;;;;;4.17;2.77;;;25.80;62.00;;;;;;5087349;28;20458;-64
2022/04/12 11:06:01;;;;;;;5.97;3.07;;;26.10;59.60;;;;;;5086956;28;20563;-64
2022/04/12 11:08:52;;;;;;;5.50;3.37;;;26.20;58.70;;;;;;5087555;28;20434;-65
2022/04/12 11:11:26;;;;;;;4.30;3.03;;;27.00;58.30;;;;;;5071946;28;20450;-63
2022/04/12 11:13:54;;;;;;;4.50;2.50;;;27.40;55.00;;;;;;5087234;28;20534;-63
2022/04/12 11:16:27;;;;;;;4.00;2.43;;;27.80;57.70;;;;;;5086735;28;20533;-64
2022/04/12 11:18:55;;;;;;;4.23;2.50;;;27.40;54.00;;;;;;5086862;28;20996;-64
2022/04/12 11:21:25;;;;;;;4.00;2.47;;;27.30;56.00;;;;;;5087106;28;21029;-64
2022/04/12 11:23:57;;;;;;;4.97;2.63;;;27.40;54.40;;;;;;5086801;28;20473;-65
2022/04/12 11:26:35;;;;;;;3.27;2.43;;;27.10;55.00;;;;;;5086774;28;20452;-64
2022/04/12 11:29:02;;;;;;;3.07;2.03;;;27.30;56.20;;;;;;5086781;28;20976;-65
2022/04/12 11:31:30;;;;;;;4.47;2.10;;;27.00;54.70;;;;;;5086684;28;20542;-65
2022/04/12 11:33:58;;;;;;;4.03;2.20;;;27.10;56.10;;;;;;5086805;28;20489;-65
2022/04/12 11:36:26;;;;;;;3.43;2.30;;;27.30;56.90;;;;;;5086414;28;20525;-64
2022/04/12 11:38:53;;;;;;;3.13;2.10;;;27.40;55.90;;;;;;5086518;28;20474;-64
2022/04/12 11:41:20;;;;;;;3.70;2.23;;;27.60;55.40;;;;;;5086733;28;20450;-64
2022/04/12 11:43:46;;;;;;;2.73;1.90;;;27.90;51.80;;;;;;5086706;28;20462;-64
2022/04/12 11:46:18;;;;;;;4.90;2.70;;;28.30;55.70;;;;;;5086314;28;20446;-64
2022/04/12 11:48:46;;;;;;;3.97;2.47;;;28.30;52.20;;;;;;5086486;28;20434;-63
2022/04/12 11:51:13;;;;;;;4.47;2.00;;;28.20;54.00;;;;;;5086728;28;20866;-64
2022/04/12 11:53:48;;;;;;;3.53;2.10;;;28.40;53.10;;;;;;5086442;28;20462;-64
2022/04/12 11:56:15;;;;;;;2.97;2.23;;;28.40;51.80;;;;;;5086219;28;20448;-64
2022/04/12 11:58:42;;;;;;;3.20;2.53;;;27.90;51.90;;;;;;5086174;28;21056;-65
2022/04/12 12:01:10;;;;;;;4.63;2.27;;;27.70;53.10;;;;;;5086306;28;20446;-65
2022/04/12 12:03:38;;;;;;;3.63;2.00;;;27.70;56.50;;;;;;5085934;28;20474;-65
2022/04/12 12:06:08;;;;;;;2.90;1.90;;;27.80;52.30;;;;;;5085999;28;20469;-64
2022/04/12 12:08:35;;;;;;;3.93;2.03;;;28.10;54.90;;;;;;5086175;28;20448;-65
2022/04/12 12:11:10;;;;;;;3.30;2.10;;;28.40;54.20;;;;;;5075810;28;20461;-64
2022/04/12 12:13:37;;;;;;;3.23;1.90;;;28.50;52.00;;;;;;5072421;28;20477;-64
2022/04/12 12:16:14;;;;;;;4.37;2.17;;;28.60;52.90;;;;;;5071973;28;20453;-64
2022/04/12 12:18:42;;;;;;;4.33;1.90;;;28.60;51.40;;;;;;5072520;28;20482;-64
2022/04/12 12:21:10;;;;;;;2.97;1.90;;;28.40;50.60;;;;;;5072315;28;20965;-59
2022/04/12 12:23:37;;;;;;;3.97;1.90;;;28.70;50.50;;;;;;5072074;28;20890;-65
2022/04/12 12:26:03;;;;;;;5.30;2.43;;;28.70;49.20;;;;;;5072005;28;20447;-64
2022/04/12 12:28:31;;;;;;;3.57;1.87;;;28.50;49.60;;;;;;5072151;28;20963;-63
2022/04/12 12:30:59;;;;;;;3.40;1.90;;;28.40;48.40;;;;;;5072379;28;20455;-64
2022/04/12 12:33:38;;;;;;;3.27;2.40;;;28.70;49.60;;;;;;5072241;28;20498;-64
2022/04/12 12:36:15;;;;;;;5.33;1.80;;;29.00;49.90;;;;;;5071930;28;20496;-64
2022/04/12 12:38:46;;;;;;;3.67;1.90;;;29.00;49.80;;;;;;5071960;28;20926;-64
2022/04/12 12:41:23;;;;;;;3.07;1.90;;;29.10;51.50;;;;;;5071935;28;20447;-64
2022/04/12 12:43:54;;;;;;;4.97;1.70;;;29.20;50.00;;;;;;5072159;28;20471;-62
2022/04/12 12:46:21;;;;;;;3.53;1.87;;;29.60;47.20;;;;;;5072004;28;20470;-64
2022/04/12 12:48:47;;;;;;;4.20;2.00;;;29.90;48.00;;;;;;5072222;28;20830;-64
2022/04/12 12:51:14;;;;;;;3.63;1.60;;;29.90;46.90;;;;;;5072120;28;20443;-65
2022/04/12 12:53:41;;;;;;;2.87;1.47;;;30.40;48.60;;;;;;5067157;28;20857;-64
2022/04/12 12:56:17;;;;;;;4.13;1.93;;;30.40;47.00;;;;;;5064862;28;20550;-66